createdAt,value
2019-04-28T00:00:28.522Z,888.15
2019-04-28T00:01:28.498Z,888.17
2019-04-28T00:02:28.488Z,888.11
2019-04-28T00:03:28.469Z,888.12
2019-04-28T00:04:28.449Z,888.09
2019-04-28T00:05:28.435Z,888.17
2019-04-28T00:06:28.417Z,888.13
2019-04-28T00:07:28.409Z,888.14
2019-04-28T00:08:28.390Z,888.13
2019-04-28T00:09:28.369Z,888.15
2019-04-28T00:10:28.361Z,888.13
2019-04-28T00:11:28.339Z,888.14
2019-04-28T00:12:28.326Z,888.14
2019-04-28T00:13:28.310Z,888.12
2019-04-28T00:14:28.293Z,888.16
2019-04-28T00:15:28.276Z,888.17
2019-04-28T00:16:28.262Z,888.17
2019-04-28T00:17:28.240Z,888.17
2019-04-28T00:18:28.224Z,888.21
2019-04-28T00:19:28.214Z,888.20
2019-04-28T00:20:28.193Z,888.24
2019-04-28T00:21:28.179Z,888.28
2019-04-28T00:22:28.163Z,888.28
2019-04-28T00:23:28.145Z,888.32
2019-04-28T00:24:28.132Z,888.32
2019-04-28T00:25:28.129Z,888.35
2019-04-28T00:26:28.091Z,888.36
2019-04-28T00:27:28.084Z,888.38
2019-04-28T00:28:28.065Z,888.45
2019-04-28T00:29:38.541Z,888.52
2019-04-28T00:30:28.033Z,888.54
2019-04-28T00:31:28.021Z,888.55
2019-04-28T00:32:28.001Z,888.56
2019-04-28T00:33:27.981Z,888.54
2019-04-28T00:34:27.967Z,888.61
2019-04-28T00:35:27.951Z,888.51
2019-04-28T00:36:27.932Z,888.55
2019-04-28T00:37:27.914Z,888.56
2019-04-28T00:38:27.901Z,888.51
2019-04-28T00:39:27.888Z,888.50
2019-04-28T00:40:27.866Z,888.54
2019-04-28T00:41:27.852Z,888.52
2019-04-28T00:42:27.833Z,888.55
2019-04-28T00:43:27.816Z,888.50
2019-04-28T00:44:27.796Z,888.60
2019-04-28T00:45:27.785Z,888.59
2019-04-28T00:46:27.767Z,888.58
2019-04-28T00:47:27.752Z,888.63
2019-04-28T00:48:27.729Z,888.64
2019-04-28T00:49:27.715Z,888.65
2019-04-28T00:50:27.699Z,888.61
2019-04-28T00:51:27.677Z,888.64
2019-04-28T00:52:27.672Z,888.65
2019-04-28T00:53:27.652Z,888.60
2019-04-28T00:54:27.645Z,888.66
2019-04-28T00:55:27.612Z,888.59
2019-04-28T00:56:27.601Z,888.66
2019-04-28T00:57:27.579Z,888.65
2019-04-28T00:58:27.569Z,888.65
2019-04-28T00:59:27.545Z,888.66
2019-04-28T01:00:27.530Z,888.69
2019-04-28T01:01:27.514Z,888.71
2019-04-28T01:02:27.500Z,888.69
2019-04-28T01:03:27.488Z,888.68
2019-04-28T01:04:27.458Z,888.67
2019-04-28T01:05:27.448Z,888.66
2019-04-28T01:06:27.426Z,888.66
2019-04-28T01:07:27.412Z,888.70
2019-04-28T01:08:27.393Z,888.68
2019-04-28T01:09:27.377Z,888.70
2019-04-28T01:10:27.355Z,888.66
2019-04-28T01:11:27.347Z,888.68
2019-04-28T01:12:27.326Z,888.71
2019-04-28T01:13:27.319Z,888.76
2019-04-28T01:14:27.294Z,888.72
2019-04-28T01:15:27.278Z,888.75
2019-04-28T01:16:27.251Z,888.74
2019-04-28T01:17:27.238Z,888.78
2019-04-28T01:18:27.231Z,888.74
2019-04-28T01:19:27.210Z,888.72
2019-04-28T01:20:27.190Z,888.71
2019-04-28T01:21:27.172Z,888.74
2019-04-28T01:22:27.158Z,888.73
2019-04-28T01:23:27.141Z,888.74
2019-04-28T01:24:27.121Z,888.77
2019-04-28T01:25:27.117Z,888.74
2019-04-28T01:26:27.089Z,888.76
2019-04-28T01:27:27.073Z,888.76
2019-04-28T01:28:27.059Z,888.76
2019-04-28T01:29:27.037Z,888.76
2019-04-28T01:30:27.024Z,888.74
2019-04-28T01:31:27.011Z,888.75
2019-04-28T01:32:26.996Z,888.72
2019-04-28T01:33:26.968Z,888.78
2019-04-28T01:34:26.950Z,888.74
2019-04-28T01:35:26.938Z,888.76
2019-04-28T01:36:26.920Z,888.74
2019-04-28T01:37:26.909Z,888.71
2019-04-28T01:38:26.884Z,888.70
2019-04-28T01:39:26.870Z,888.72
2019-04-28T01:40:26.851Z,888.73
2019-04-28T01:41:26.835Z,888.72
2019-04-28T01:42:26.819Z,888.71
2019-04-28T01:43:26.801Z,888.72
2019-04-28T01:44:26.799Z,888.71
2019-04-28T01:45:26.769Z,888.70
2019-04-28T01:46:26.753Z,888.70
2019-04-28T01:47:26.729Z,888.71
2019-04-28T01:48:26.724Z,888.71
2019-04-28T01:49:26.698Z,888.75
2019-04-28T01:50:26.686Z,888.71
2019-04-28T01:51:26.664Z,888.73
2019-04-28T01:52:26.655Z,888.74
2019-04-28T01:53:26.634Z,888.73
2019-04-28T01:54:26.620Z,888.73
2019-04-28T01:55:26.604Z,888.71
2019-04-28T01:56:26.581Z,888.72
2019-04-28T01:57:26.565Z,888.72
2019-04-28T01:58:26.547Z,888.69
2019-04-28T01:59:26.529Z,888.69
2019-04-28T02:00:26.515Z,888.72
2019-04-28T02:01:26.499Z,888.73
2019-04-28T02:02:26.487Z,888.72
2019-04-28T02:03:26.466Z,888.71
2019-04-28T02:04:26.450Z,888.77
2019-04-28T02:05:26.438Z,888.77
2019-04-28T02:06:26.418Z,888.74
2019-04-28T02:07:26.400Z,888.74
2019-04-28T02:08:26.388Z,888.75
2019-04-28T02:09:26.370Z,888.76
2019-04-28T02:10:26.358Z,888.75
2019-04-28T02:11:26.334Z,888.75
2019-04-28T02:12:26.317Z,888.74
2019-04-28T02:13:26.302Z,888.73
2019-04-28T02:14:26.281Z,888.74
2019-04-28T02:15:26.266Z,888.73
2019-04-28T02:16:26.251Z,888.70
2019-04-28T02:17:26.241Z,888.74
2019-04-28T02:18:26.215Z,888.72
2019-04-28T02:19:26.201Z,888.71
2019-04-28T02:20:26.186Z,888.72
2019-04-28T02:21:26.173Z,888.73
2019-04-28T02:22:26.150Z,888.76
2019-04-28T02:23:26.140Z,888.72
2019-04-28T02:24:26.120Z,888.75
2019-04-28T02:25:26.102Z,888.73
2019-04-28T02:26:26.088Z,888.74
2019-04-28T02:27:26.066Z,888.72
2019-04-28T02:28:26.055Z,888.77
2019-04-28T02:29:26.035Z,888.75
2019-04-28T02:30:40.989Z,888.75
2019-04-28T02:31:26.004Z,888.76
2019-04-28T02:32:25.987Z,888.80
2019-04-28T02:33:25.968Z,888.76
2019-04-28T02:34:25.972Z,888.77
2019-04-28T02:35:25.933Z,888.74
2019-04-28T02:36:25.926Z,888.73
2019-04-28T02:37:25.905Z,888.74
2019-04-28T02:38:25.895Z,888.73
2019-04-28T02:39:25.880Z,888.70
2019-04-28T02:40:25.848Z,888.69
2019-04-28T02:41:25.837Z,888.70
2019-04-28T02:42:25.811Z,888.71
2019-04-28T02:43:25.807Z,888.64
2019-04-28T02:44:25.788Z,888.62
2019-04-28T02:45:25.783Z,888.67
2019-04-28T02:46:25.754Z,888.68
2019-04-28T02:47:25.745Z,888.67
2019-04-28T02:48:25.714Z,888.69
2019-04-28T02:49:25.698Z,888.66
2019-04-28T02:50:25.686Z,888.66
2019-04-28T02:51:25.671Z,888.68
2019-04-28T02:52:25.653Z,888.68
2019-04-28T02:53:25.640Z,888.67
2019-04-28T02:54:25.619Z,888.71
2019-04-28T02:55:25.602Z,888.73
2019-04-28T02:56:25.585Z,888.71
2019-04-28T02:57:25.566Z,888.70
2019-04-28T02:58:25.570Z,888.68
2019-04-28T02:59:25.542Z,888.66
2019-04-28T03:00:25.521Z,888.68
2019-04-28T03:01:26.637Z,888.63
2019-04-28T03:02:25.489Z,888.66
2019-04-28T03:03:25.471Z,888.58
2019-04-28T03:04:25.450Z,888.62
2019-04-28T03:05:25.437Z,888.59
2019-04-28T03:06:25.414Z,888.58
2019-04-28T03:07:25.400Z,888.60
2019-04-28T03:08:25.380Z,888.58
2019-04-28T03:09:25.375Z,888.55
2019-04-28T03:10:25.351Z,888.53
2019-04-28T03:11:25.345Z,888.53
2019-04-28T03:12:25.313Z,888.47
2019-04-28T03:13:25.302Z,888.43
2019-04-28T03:14:25.285Z,888.42
2019-04-28T03:15:25.263Z,888.39
2019-04-28T03:16:25.254Z,888.41
2019-04-28T03:17:25.234Z,888.42
2019-04-28T03:18:25.222Z,888.42
2019-04-28T03:19:25.200Z,888.45
2019-04-28T03:20:25.186Z,888.47
2019-04-28T03:21:25.175Z,888.45
2019-04-28T03:22:25.160Z,888.45
2019-04-28T03:23:25.134Z,888.46
2019-04-28T03:24:25.112Z,888.45
2019-04-28T03:25:25.093Z,888.41
2019-04-28T03:26:25.083Z,888.39
2019-04-28T03:27:25.065Z,888.38
2019-04-28T03:28:25.071Z,888.38
2019-04-28T03:29:25.038Z,888.39
2019-04-28T03:30:25.022Z,888.42
2019-04-28T03:31:50.869Z,888.37
2019-04-28T03:32:39.701Z,888.32
2019-04-28T03:33:26.210Z,888.29
2019-04-28T03:34:24.966Z,888.24
2019-04-28T03:35:24.934Z,888.19
2019-04-28T03:36:24.914Z,888.15
2019-04-28T03:37:24.902Z,888.12
2019-04-28T03:38:24.879Z,888.12
2019-04-28T03:39:24.872Z,888.11
2019-04-28T03:40:24.846Z,888.09
2019-04-28T03:41:24.836Z,888.09
2019-04-28T03:42:24.827Z,888.06
2019-04-28T03:43:24.798Z,888.04
2019-04-28T03:44:24.786Z,887.99
2019-04-28T03:45:24.760Z,888.00
2019-04-28T03:46:24.754Z,887.98
2019-04-28T03:47:24.737Z,887.97
2019-04-28T03:48:24.713Z,887.96
2019-04-28T03:49:24.700Z,887.91
2019-04-28T03:50:24.686Z,887.87
2019-04-28T03:51:24.661Z,887.89
2019-04-28T03:52:24.659Z,887.90
2019-04-28T03:53:24.640Z,887.88
2019-04-28T03:54:24.609Z,887.87
2019-04-28T03:55:24.600Z,887.84
2019-04-28T03:56:24.580Z,887.83
2019-04-28T03:57:24.572Z,887.82
2019-04-28T03:58:24.561Z,887.77
2019-04-28T03:59:24.528Z,887.76
2019-04-28T04:00:24.520Z,887.75
2019-04-28T04:01:24.509Z,887.71
2019-04-28T04:02:24.489Z,887.70
2019-04-28T04:03:24.469Z,887.69
2019-04-28T04:04:24.454Z,887.69
2019-04-28T04:05:24.433Z,887.68
2019-04-28T04:06:24.423Z,887.64
2019-04-28T04:07:24.397Z,887.61
2019-04-28T04:08:24.381Z,887.61
2019-04-28T04:09:24.368Z,887.56
2019-04-28T04:10:24.353Z,887.55
2019-04-28T04:11:24.352Z,887.55
2019-04-28T04:12:24.316Z,887.57
2019-04-28T04:13:24.302Z,887.56
2019-04-28T04:14:24.291Z,887.52
2019-04-28T04:15:24.304Z,887.53
2019-04-28T04:16:24.252Z,887.53
2019-04-28T04:17:24.238Z,887.51
2019-04-28T04:18:24.219Z,887.54
2019-04-28T04:19:24.243Z,887.53
2019-04-28T04:20:24.183Z,887.51
2019-04-28T04:21:24.164Z,887.49
2019-04-28T04:22:24.149Z,887.50
2019-04-28T04:23:24.139Z,887.51
2019-04-28T04:24:24.119Z,887.50
2019-04-28T04:25:24.105Z,887.49
2019-04-28T04:26:24.095Z,887.51
2019-04-28T04:27:24.067Z,887.52
2019-04-28T04:28:24.051Z,887.48
2019-04-28T04:29:24.038Z,887.48
2019-04-28T04:30:24.010Z,887.50
2019-04-28T04:31:24.002Z,887.51
2019-04-28T04:32:26.984Z,887.48
2019-04-28T04:33:23.973Z,887.50
2019-04-28T04:34:23.952Z,887.49
2019-04-28T04:35:23.943Z,887.52
2019-04-28T04:36:23.917Z,887.50
2019-04-28T04:37:23.897Z,887.49
2019-04-28T04:38:23.880Z,887.49
2019-04-28T04:39:23.882Z,887.55
2019-04-28T04:40:23.850Z,887.59
2019-04-28T04:41:23.833Z,887.56
2019-04-28T04:42:23.813Z,887.60
2019-04-28T04:43:23.802Z,887.60
2019-04-28T04:44:23.782Z,887.59
2019-04-28T04:45:23.768Z,887.57
2019-04-28T04:46:23.753Z,887.61
2019-04-28T04:47:23.735Z,887.60
2019-04-28T04:48:23.719Z,887.55
2019-04-28T04:49:23.699Z,887.57
2019-04-28T04:50:23.681Z,887.55
2019-04-28T04:51:23.667Z,887.52
2019-04-28T04:52:23.653Z,887.52
2019-04-28T04:53:23.628Z,887.51
2019-04-28T04:54:23.622Z,887.46
2019-04-28T04:55:23.601Z,887.46
2019-04-28T04:56:23.573Z,887.46
2019-04-28T04:57:23.561Z,887.41
2019-04-28T04:58:23.551Z,887.44
2019-04-28T04:59:23.531Z,887.41
2019-04-28T05:00:23.514Z,887.43
2019-04-28T05:01:23.506Z,887.44
2019-04-28T05:02:29.533Z,887.40
2019-04-28T05:03:23.459Z,887.41
2019-04-28T05:04:23.451Z,887.38
2019-04-28T05:05:23.433Z,887.38
2019-04-28T05:06:23.416Z,887.32
2019-04-28T05:07:23.397Z,887.26
2019-04-28T05:08:23.378Z,887.27
2019-04-28T05:09:23.362Z,887.26
2019-04-28T05:10:23.351Z,887.24
2019-04-28T05:11:23.328Z,887.23
2019-04-28T05:12:23.313Z,887.22
2019-04-28T05:13:23.294Z,887.27
2019-04-28T05:14:23.279Z,887.26
2019-04-28T05:15:23.262Z,887.27
2019-04-28T05:16:23.243Z,887.24
2019-04-28T05:17:23.239Z,887.22
2019-04-28T05:18:23.213Z,887.18
2019-04-28T05:19:23.198Z,887.18
2019-04-28T05:20:23.182Z,887.16
2019-04-28T05:21:23.175Z,887.14
2019-04-28T05:22:23.150Z,887.16
2019-04-28T05:23:23.128Z,887.14
2019-04-28T05:24:23.107Z,887.15
2019-04-28T05:25:24.542Z,887.13
2019-04-28T05:26:23.076Z,887.12
2019-04-28T05:27:25.552Z,887.17
2019-04-28T05:28:23.047Z,887.13
2019-04-28T05:29:26.982Z,887.13
2019-04-28T05:30:23.013Z,887.14
2019-04-28T05:31:24.347Z,887.10
2019-04-28T05:32:22.981Z,887.10
2019-04-28T05:33:23.669Z,887.09
2019-04-28T05:34:24.339Z,887.10
2019-04-28T05:35:25.109Z,887.11
2019-04-28T05:36:22.912Z,887.08
2019-04-28T05:37:22.900Z,887.07
2019-04-28T05:38:22.882Z,887.01
2019-04-28T05:39:22.853Z,887.05
2019-04-28T05:40:22.845Z,887.01
2019-04-28T05:41:22.830Z,886.99
2019-04-28T05:42:22.818Z,887.01
2019-04-28T05:43:22.799Z,886.95
2019-04-28T05:44:22.783Z,886.94
2019-04-28T05:45:22.759Z,886.97
2019-04-28T05:46:22.741Z,886.91
2019-04-28T05:47:22.730Z,886.96
2019-04-28T05:48:22.708Z,886.94
2019-04-28T05:49:22.697Z,886.91
2019-04-28T05:50:22.677Z,886.96
2019-04-28T05:51:22.662Z,886.92
2019-04-28T05:52:22.638Z,886.93
2019-04-28T05:53:22.645Z,886.93
2019-04-28T05:54:22.605Z,886.93
2019-04-28T05:55:22.605Z,886.87
2019-04-28T05:56:22.581Z,886.85
2019-04-28T05:57:22.560Z,886.83
2019-04-28T05:58:22.547Z,886.88
2019-04-28T05:59:22.537Z,886.84
2019-04-28T06:00:22.509Z,886.86
2019-04-28T06:01:22.491Z,886.87
2019-04-28T06:02:22.485Z,886.86
2019-04-28T06:03:22.462Z,886.83
2019-04-28T06:04:22.446Z,886.85
2019-04-28T06:05:22.419Z,886.81
2019-04-28T06:06:22.414Z,886.83
2019-04-28T06:07:22.395Z,886.84
2019-04-28T06:08:22.375Z,886.85
2019-04-28T06:09:22.365Z,886.82
2019-04-28T06:10:22.350Z,886.82
2019-04-28T06:11:22.327Z,886.85
2019-04-28T06:12:22.312Z,886.83
2019-04-28T06:13:22.298Z,886.85
2019-04-28T06:14:22.275Z,886.84
2019-04-28T06:15:22.262Z,886.86
2019-04-28T06:16:22.276Z,886.83
2019-04-28T06:17:22.231Z,886.86
2019-04-28T06:18:22.214Z,886.88
2019-04-28T06:19:22.196Z,886.84
2019-04-28T06:20:22.184Z,886.85
2019-04-28T06:21:22.168Z,886.87
2019-04-28T06:22:22.154Z,886.92
2019-04-28T06:23:22.132Z,886.91
2019-04-28T06:24:22.121Z,886.92
2019-04-28T06:25:22.099Z,886.90
2019-04-28T06:26:22.080Z,886.93
2019-04-28T06:27:22.062Z,886.88
2019-04-28T06:28:22.055Z,886.93
2019-04-28T06:29:22.033Z,886.94
2019-04-28T06:30:22.019Z,886.91
2019-04-28T06:31:21.995Z,886.91
2019-04-28T06:32:21.981Z,886.92
2019-04-28T06:33:21.965Z,886.90
2019-04-28T06:34:21.956Z,886.88
2019-04-28T06:35:21.937Z,886.91
2019-04-28T06:36:21.924Z,886.88
2019-04-28T06:37:21.899Z,886.88
2019-04-28T06:38:21.892Z,886.92
2019-04-28T06:39:21.870Z,886.91
2019-04-28T06:40:21.851Z,886.87
2019-04-28T06:41:21.837Z,886.91
2019-04-28T06:42:21.826Z,886.88
2019-04-28T06:43:21.806Z,886.87
2019-04-28T06:44:21.788Z,886.91
2019-04-28T06:45:21.769Z,886.94
2019-04-28T06:46:21.755Z,886.92
2019-04-28T06:47:21.737Z,887.01
2019-04-28T06:48:21.718Z,887.00
2019-04-28T06:49:21.702Z,887.02
2019-04-28T06:50:21.682Z,887.05
2019-04-28T06:51:21.674Z,887.10
2019-04-28T06:52:21.668Z,887.11
2019-04-28T06:53:21.640Z,887.13
2019-04-28T06:54:21.623Z,887.10
2019-04-28T06:55:21.603Z,887.10
2019-04-28T06:56:21.589Z,887.09
2019-04-28T06:57:21.616Z,887.08
2019-04-28T06:58:21.555Z,887.08
2019-04-28T06:59:21.539Z,887.08
2019-04-28T07:00:21.525Z,887.09
2019-04-28T07:01:21.502Z,887.07
2019-04-28T07:02:21.491Z,887.06
2019-04-28T07:03:23.353Z,887.07
2019-04-28T07:04:21.449Z,887.11
2019-04-28T07:05:21.442Z,887.06
2019-04-28T07:06:21.433Z,887.05
2019-04-28T07:07:21.404Z,887.09
2019-04-28T07:08:21.387Z,887.09
2019-04-28T07:09:21.451Z,887.12
2019-04-28T07:10:21.355Z,887.14
2019-04-28T07:11:21.338Z,887.15
2019-04-28T07:12:21.315Z,887.13
2019-04-28T07:13:21.307Z,887.13
2019-04-28T07:14:21.292Z,887.18
2019-04-28T07:15:21.271Z,887.20
2019-04-28T07:16:21.252Z,887.17
2019-04-28T07:17:21.243Z,887.21
2019-04-28T07:18:21.220Z,887.19
2019-04-28T07:19:21.206Z,887.18
2019-04-28T07:20:21.195Z,887.21
2019-04-28T07:21:21.173Z,887.20
2019-04-28T07:22:21.159Z,887.25
2019-04-28T07:23:21.141Z,887.23
2019-04-28T07:24:21.118Z,887.23
2019-04-28T07:25:21.100Z,887.25
2019-04-28T07:26:21.084Z,887.23
2019-04-28T07:27:21.068Z,887.25
2019-04-28T07:28:21.058Z,887.22
2019-04-28T07:29:21.041Z,887.25
2019-04-28T07:30:21.022Z,887.24
2019-04-28T07:31:21.010Z,887.23
2019-04-28T07:32:20.989Z,887.22
2019-04-28T07:33:20.969Z,887.22
2019-04-28T07:34:20.957Z,887.19
2019-04-28T07:35:20.941Z,887.22
2019-04-28T07:36:20.921Z,887.20
2019-04-28T07:37:20.905Z,887.21
2019-04-28T07:38:20.885Z,887.20
2019-04-28T07:39:20.892Z,887.21
2019-04-28T07:40:20.859Z,887.18
2019-04-28T07:41:20.842Z,887.19
2019-04-28T07:42:20.826Z,887.18
2019-04-28T07:43:20.816Z,887.18
2019-04-28T07:44:20.790Z,887.18
2019-04-28T07:45:20.774Z,887.16
2019-04-28T07:46:20.753Z,887.16
2019-04-28T07:47:20.738Z,887.17
2019-04-28T07:48:20.735Z,887.16
2019-04-28T07:49:20.717Z,887.15
2019-04-28T07:50:20.702Z,887.12
2019-04-28T07:51:20.679Z,887.15
2019-04-28T07:52:20.660Z,887.15
2019-04-28T07:53:20.644Z,887.10
2019-04-28T07:54:20.630Z,887.14
2019-04-28T07:55:20.610Z,887.10
2019-04-28T07:56:20.592Z,887.11
2019-04-28T07:57:20.578Z,887.07
2019-04-28T07:58:20.561Z,887.08
2019-04-28T07:59:20.551Z,887.04
2019-04-28T08:00:20.531Z,887.04
2019-04-28T08:01:20.517Z,887.01
2019-04-28T08:02:20.501Z,887.02
2019-04-28T08:03:20.535Z,887.01
2019-04-28T08:04:20.471Z,887.00
2019-04-28T08:05:20.449Z,887.01
2019-04-28T08:06:20.438Z,886.99
2019-04-28T08:07:20.415Z,887.02
2019-04-28T08:08:20.396Z,887.06
2019-04-28T08:09:20.395Z,887.05
2019-04-28T08:10:20.370Z,887.07
2019-04-28T08:11:20.352Z,887.07
2019-04-28T08:12:20.335Z,887.09
2019-04-28T08:13:20.326Z,887.13
2019-04-28T08:14:20.304Z,887.09
2019-04-28T08:15:20.300Z,887.11
2019-04-28T08:16:20.269Z,887.10
2019-04-28T08:17:20.260Z,887.10
2019-04-28T08:18:20.240Z,887.11
2019-04-28T08:19:20.221Z,887.12
2019-04-28T08:20:20.210Z,887.14
2019-04-28T08:21:20.190Z,887.12
2019-04-28T08:22:20.174Z,887.17
2019-04-28T08:23:20.158Z,887.16
2019-04-28T08:24:20.145Z,887.18
2019-04-28T08:25:20.131Z,887.19
2019-04-28T08:26:20.123Z,887.18
2019-04-28T08:27:20.091Z,887.27
2019-04-28T08:28:20.082Z,887.25
2019-04-28T08:29:20.062Z,887.24
2019-04-28T08:30:20.048Z,887.24
2019-04-28T08:31:20.039Z,887.25
2019-04-28T08:32:20.016Z,887.28
2019-04-28T08:33:20.006Z,887.28
2019-04-28T08:34:19.988Z,887.31
2019-04-28T08:35:19.972Z,887.31
2019-04-28T08:36:19.957Z,887.27
2019-04-28T08:37:19.937Z,887.30
2019-04-28T08:38:19.919Z,887.27
2019-04-28T08:39:19.905Z,887.30
2019-04-28T08:40:19.896Z,887.35
2019-04-28T08:41:19.872Z,887.33
2019-04-28T08:42:19.863Z,887.32
2019-04-28T08:43:19.837Z,887.34
2019-04-28T08:44:19.822Z,887.34
2019-04-28T08:45:19.813Z,887.32
2019-04-28T08:46:19.796Z,887.35
2019-04-28T08:47:19.779Z,887.35
2019-04-28T08:48:19.763Z,887.34
2019-04-28T08:49:19.744Z,887.35
2019-04-28T08:50:19.734Z,887.33
2019-04-28T08:51:19.727Z,887.35
2019-04-28T08:52:19.703Z,887.34
2019-04-28T08:53:19.691Z,887.32
2019-04-28T08:54:19.663Z,887.35
2019-04-28T08:55:19.651Z,887.33
2019-04-28T08:56:19.632Z,887.32
2019-04-28T08:57:19.625Z,887.32
2019-04-28T08:58:19.605Z,887.32
2019-04-28T08:59:19.586Z,887.33
2019-04-28T09:00:19.571Z,887.37
2019-04-28T09:01:19.553Z,887.32
2019-04-28T09:02:19.542Z,887.32
2019-04-28T09:03:19.532Z,887.32
2019-04-28T09:04:19.505Z,887.28
2019-04-28T09:05:19.491Z,887.34
2019-04-28T09:06:19.487Z,887.35
2019-04-28T09:07:19.461Z,887.32
2019-04-28T09:08:19.441Z,887.34
2019-04-28T09:09:19.428Z,887.32
2019-04-28T09:10:19.411Z,887.38
2019-04-28T09:11:19.394Z,887.36
2019-04-28T09:12:19.378Z,887.40
2019-04-28T09:13:19.360Z,887.38
2019-04-28T09:14:19.346Z,887.42
2019-04-28T09:15:19.330Z,887.44
2019-04-28T09:16:19.315Z,887.43
2019-04-28T09:17:19.301Z,887.41
2019-04-28T09:18:19.283Z,887.47
2019-04-28T09:19:19.265Z,887.44
2019-04-28T09:20:19.255Z,887.48
2019-04-28T09:21:19.243Z,887.46
2019-04-28T09:22:19.219Z,887.52
2019-04-28T09:23:19.197Z,887.56
2019-04-28T09:24:19.187Z,887.58
2019-04-28T09:25:19.172Z,887.59
2019-04-28T09:26:19.169Z,887.57
2019-04-28T09:27:19.142Z,887.57
2019-04-28T09:28:19.125Z,887.57
2019-04-28T09:29:19.124Z,887.60
2019-04-28T09:30:19.094Z,887.57
2019-04-28T09:31:19.070Z,887.61
2019-04-28T09:32:19.059Z,887.63
2019-04-28T09:33:19.041Z,887.65
2019-04-28T09:34:28.151Z,887.62
2019-04-28T09:35:19.017Z,887.67
2019-04-28T09:36:18.993Z,887.68
2019-04-28T09:37:18.977Z,887.67
2019-04-28T09:38:18.959Z,887.69
2019-04-28T09:39:18.941Z,887.70
2019-04-28T09:40:18.926Z,887.70
2019-04-28T09:41:18.906Z,887.69
2019-04-28T09:42:18.892Z,887.71
2019-04-28T09:43:18.874Z,887.74
2019-04-28T09:44:18.863Z,887.73
2019-04-28T09:45:18.850Z,887.72
2019-04-28T09:46:18.827Z,887.72
2019-04-28T09:47:18.814Z,887.74
2019-04-28T09:48:18.790Z,887.75
2019-04-28T09:49:18.777Z,887.76
2019-04-28T09:50:18.758Z,887.79
2019-04-28T09:51:18.744Z,887.79
2019-04-28T09:52:18.725Z,887.73
2019-04-28T09:53:18.708Z,887.76
2019-04-28T09:54:18.694Z,887.75
2019-04-28T09:55:18.680Z,887.72
2019-04-28T09:56:18.667Z,887.73
2019-04-28T09:57:18.646Z,887.74
2019-04-28T09:58:18.624Z,887.75
2019-04-28T09:59:18.670Z,887.74
2019-04-28T10:00:18.599Z,887.75
2019-04-28T10:01:18.579Z,887.75
2019-04-28T10:02:18.573Z,887.71
2019-04-28T10:03:18.543Z,887.73
2019-04-28T10:04:18.524Z,887.73
2019-04-28T10:05:18.510Z,887.72
2019-04-28T10:06:18.492Z,887.73
2019-04-28T10:07:18.480Z,887.74
2019-04-28T10:08:18.462Z,887.71
2019-04-28T10:09:18.445Z,887.76
2019-04-28T10:10:18.435Z,887.71
2019-04-28T10:11:30.053Z,887.69
2019-04-28T10:12:26.877Z,887.70
2019-04-28T10:13:18.376Z,887.68
2019-04-28T10:14:18.366Z,887.65
2019-04-28T10:15:18.348Z,887.64
2019-04-28T10:16:18.337Z,887.62
2019-04-28T10:17:18.318Z,887.59
2019-04-28T10:18:18.308Z,887.60
2019-04-28T10:19:18.282Z,887.57
2019-04-28T10:20:18.267Z,887.57
2019-04-28T10:21:18.253Z,887.57
2019-04-28T10:22:18.233Z,887.58
2019-04-28T10:23:18.217Z,887.58
2019-04-28T10:24:18.203Z,887.56
2019-04-28T10:25:20.997Z,887.58
2019-04-28T10:26:18.171Z,887.57
2019-04-28T10:27:18.157Z,887.56
2019-04-28T10:28:18.134Z,887.55
2019-04-28T10:29:18.119Z,887.56
2019-04-28T10:30:18.106Z,887.57
2019-04-28T10:31:18.094Z,887.57
2019-04-28T10:32:18.077Z,887.54
2019-04-28T10:33:18.060Z,887.54
2019-04-28T10:34:18.041Z,887.55
2019-04-28T10:35:18.033Z,887.56
2019-04-28T10:36:18.020Z,887.55
2019-04-28T10:37:17.991Z,887.51
2019-04-28T10:38:17.980Z,887.55
2019-04-28T10:39:17.964Z,887.55
2019-04-28T10:40:17.952Z,887.55
2019-04-28T10:41:17.938Z,887.47
2019-04-28T10:42:17.918Z,887.46
2019-04-28T10:43:17.902Z,887.46
2019-04-28T10:44:17.886Z,887.44
2019-04-28T10:45:17.868Z,887.44
2019-04-28T10:46:17.860Z,887.40
2019-04-28T10:47:17.843Z,887.39
2019-04-28T10:48:17.823Z,887.41
2019-04-28T10:49:17.812Z,887.36
2019-04-28T10:50:17.803Z,887.37
2019-04-28T10:51:17.774Z,887.37
2019-04-28T10:52:17.760Z,887.34
2019-04-28T10:53:17.743Z,887.30
2019-04-28T10:54:17.729Z,887.32
2019-04-28T10:55:17.714Z,887.32
2019-04-28T10:56:17.712Z,887.30
2019-04-28T10:57:17.684Z,887.26
2019-04-28T10:58:17.666Z,887.25
2019-04-28T10:59:17.930Z,887.25
2019-04-28T11:00:17.639Z,887.27
2019-04-28T11:01:17.620Z,887.30
2019-04-28T11:02:17.608Z,887.30
2019-04-28T11:03:17.589Z,887.29
2019-04-28T11:04:17.576Z,887.31
2019-04-28T11:05:17.554Z,887.26
2019-04-28T11:06:17.550Z,887.28
2019-04-28T11:07:17.566Z,887.31
2019-04-28T11:08:17.511Z,887.30
2019-04-28T11:09:29.802Z,887.32
2019-04-28T11:10:17.478Z,887.27
2019-04-28T11:11:17.465Z,887.26
2019-04-28T11:12:17.447Z,887.25
2019-04-28T11:13:17.433Z,887.17
2019-04-28T11:14:17.414Z,887.17
2019-04-28T11:15:17.399Z,887.16
2019-04-28T11:16:17.391Z,887.16
2019-04-28T11:17:17.367Z,887.15
2019-04-28T11:18:17.350Z,887.10
2019-04-28T11:19:17.338Z,887.06
2019-04-28T11:20:17.322Z,887.06
2019-04-28T11:21:17.310Z,887.03
2019-04-28T11:22:17.294Z,887.11
2019-04-28T11:23:17.278Z,887.06
2019-04-28T11:24:17.259Z,887.04
2019-04-28T11:25:17.246Z,887.03
2019-04-28T11:26:17.230Z,887.01
2019-04-28T11:27:17.213Z,887.02
2019-04-28T11:28:17.255Z,887.01
2019-04-28T11:29:17.189Z,887.03
2019-04-28T11:30:17.171Z,887.00
2019-04-28T11:31:17.155Z,887.06
2019-04-28T11:32:17.145Z,887.07
2019-04-28T11:33:17.118Z,887.04
2019-04-28T11:34:17.120Z,887.06
2019-04-28T11:35:21.719Z,887.05
2019-04-28T11:36:17.077Z,887.09
2019-04-28T11:37:17.070Z,887.07
2019-04-28T11:38:17.048Z,887.09
2019-04-28T11:39:17.037Z,887.05
2019-04-28T11:40:17.016Z,887.06
2019-04-28T11:41:17.013Z,887.02
2019-04-28T11:42:16.987Z,887.04
2019-04-28T11:43:16.985Z,887.02
2019-04-28T11:44:16.958Z,887.00
2019-04-28T11:45:16.947Z,887.03
2019-04-28T11:46:16.941Z,887.03
2019-04-28T11:47:16.915Z,887.05
2019-04-28T11:48:16.912Z,887.08
2019-04-28T11:49:16.893Z,887.01
2019-04-28T11:50:16.878Z,886.99
2019-04-28T11:51:16.865Z,886.98
2019-04-28T11:52:16.847Z,886.96
2019-04-28T11:53:16.847Z,886.96
2019-04-28T11:54:16.818Z,886.97
2019-04-28T11:55:16.798Z,886.90
2019-04-28T11:56:16.789Z,886.92
2019-04-28T11:57:16.775Z,886.95
2019-04-28T11:58:16.761Z,886.87
2019-04-28T11:59:16.748Z,886.92
2019-04-28T12:00:16.733Z,886.93
2019-04-28T12:01:16.718Z,886.92
2019-04-28T12:02:16.710Z,886.91
2019-04-28T12:03:16.688Z,886.89
2019-04-28T12:04:16.674Z,886.87
2019-04-28T12:05:16.659Z,886.86
2019-04-28T12:06:16.647Z,886.87
2019-04-28T12:07:16.626Z,886.85
2019-04-28T12:08:16.609Z,886.86
2019-04-28T12:09:16.606Z,886.82
2019-04-28T12:10:16.590Z,886.82
2019-04-28T12:11:16.574Z,886.79
2019-04-28T12:12:16.554Z,886.78
2019-04-28T12:13:16.544Z,886.76
2019-04-28T12:14:16.530Z,886.74
2019-04-28T12:15:16.512Z,886.71
2019-04-28T12:16:16.502Z,886.73
2019-04-28T12:17:16.484Z,886.73
2019-04-28T12:18:16.472Z,886.70
2019-04-28T12:19:16.455Z,886.68
2019-04-28T12:20:16.441Z,886.70
2019-04-28T12:21:16.436Z,886.67
2019-04-28T12:22:16.415Z,886.69
2019-04-28T12:23:16.396Z,886.68
2019-04-28T12:24:16.383Z,886.66
2019-04-28T12:25:16.373Z,886.67
2019-04-28T12:26:16.356Z,886.67
2019-04-28T12:27:16.357Z,886.61
2019-04-28T12:28:16.370Z,886.64